createdAt,value
2022-07-26T00:00:37.693Z,69.83
2022-07-26T00:03:07.979Z,69.85
2022-07-26T00:05:39.046Z,69.84
2022-07-26T00:08:13.367Z,69.62
2022-07-26T00:10:51.658Z,69.61
2022-07-26T00:13:24.245Z,70.15
2022-07-26T00:15:58.452Z,70.85
2022-07-26T00:18:29.048Z,70.71
2022-07-26T00:20:59.228Z,70.36
2022-07-26T00:23:31.061Z,70.32
2022-07-26T00:26:03.777Z,71.03
2022-07-26T00:28:34.183Z,71.40
2022-07-26T00:31:04.552Z,70.23
2022-07-26T00:33:34.712Z,70.16
2022-07-26T00:36:04.851Z,70.40
2022-07-26T00:38:35.085Z,70.68
2022-07-26T00:41:09.435Z,70.13
2022-07-26T00:43:39.906Z,69.60
2022-07-26T00:46:11.401Z,68.89
2022-07-26T00:48:41.547Z,68.83
2022-07-26T00:51:12.115Z,69.38
2022-07-26T00:53:42.126Z,69.65
2022-07-26T00:56:17.391Z,68.78
2022-07-26T00:58:47.859Z,68.53
2022-07-26T01:01:18.074Z,69.67
2022-07-26T01:03:48.658Z,69.40
2022-07-26T01:06:18.942Z,69.27
2022-07-26T01:08:51.387Z,69.91
2022-07-26T01:11:24.628Z,69.88
2022-07-26T01:13:55.273Z,70.63
2022-07-26T01:16:25.966Z,69.77
2022-07-26T01:18:56.151Z,70.52
2022-07-26T01:21:32.418Z,70.10
2022-07-26T01:24:02.724Z,71.29
2022-07-26T01:26:32.765Z,72.33
2022-07-26T01:29:02.992Z,72.99
2022-07-26T01:31:33.317Z,74.29
2022-07-26T01:34:03.403Z,77.70
2022-07-26T01:36:36.331Z,89.42
2022-07-26T01:39:10.183Z,100.00
2022-07-26T01:41:40.331Z,100.00
2022-07-26T01:44:11.056Z,100.00
2022-07-26T01:46:41.539Z,100.00
2022-07-26T01:49:11.806Z,100.00
2022-07-26T01:51:44.581Z,100.00
2022-07-26T01:54:16.090Z,100.00
2022-07-26T01:56:52.828Z,100.00
2022-07-26T01:59:23.181Z,100.00
2022-07-26T02:01:53.279Z,100.00
2022-07-26T02:04:35.858Z,100.00
2022-07-26T02:07:10.238Z,100.00
2022-07-26T02:09:43.371Z,100.00
2022-07-26T02:12:13.502Z,100.00
2022-07-26T02:14:44.075Z,100.00
2022-07-26T02:17:14.301Z,100.00
2022-07-26T02:19:44.641Z,100.00
2022-07-26T02:22:17.685Z,100.00
2022-07-26T02:24:47.779Z,100.00
2022-07-26T02:27:18.186Z,100.00
2022-07-26T02:29:48.463Z,100.00
2022-07-26T02:32:18.491Z,100.00
2022-07-26T02:34:48.623Z,100.00
2022-07-26T02:37:21.571Z,100.00
2022-07-26T02:39:51.671Z,100.00
2022-07-26T02:42:21.809Z,100.00
2022-07-26T02:44:51.945Z,100.00
2022-07-26T02:47:21.970Z,100.00
2022-07-26T02:49:52.107Z,100.00
2022-07-26T02:52:24.811Z,100.00
2022-07-26T02:54:54.852Z,100.00
2022-07-26T02:57:24.860Z,100.00
2022-07-26T02:59:54.910Z,100.00
2022-07-26T03:02:25.199Z,100.00
2022-07-26T03:04:55.262Z,100.00
2022-07-26T03:07:27.906Z,100.00
2022-07-26T03:09:58.302Z,100.00
2022-07-26T03:12:29.016Z,100.00
2022-07-26T03:14:59.009Z,100.00
2022-07-26T03:17:29.690Z,100.00
2022-07-26T03:20:03.062Z,100.00
2022-07-26T03:22:35.872Z,100.00
2022-07-26T03:25:06.697Z,100.00
2022-07-26T03:27:37.783Z,100.00
2022-07-26T03:30:09.771Z,100.00
2022-07-26T03:32:39.897Z,100.00
2022-07-26T03:35:11.721Z,100.00
2022-07-26T03:37:46.245Z,100.00
2022-07-26T03:40:17.974Z,100.00
2022-07-26T03:42:48.683Z,100.00
2022-07-26T03:45:19.350Z,100.00
2022-07-26T03:47:49.494Z,100.00
2022-07-26T03:50:19.557Z,100.00
2022-07-26T03:52:52.420Z,100.00
2022-07-26T03:55:35.170Z,100.00
2022-07-26T03:58:05.372Z,100.00
2022-07-26T04:00:35.602Z,100.00
2022-07-26T04:03:05.610Z,100.00
2022-07-26T04:05:36.083Z,100.00
2022-07-26T04:08:09.096Z,100.00
2022-07-26T04:10:39.104Z,100.00
2022-07-26T04:13:09.145Z,100.00
2022-07-26T04:15:39.234Z,100.00
2022-07-26T04:18:09.414Z,100.00
2022-07-26T04:20:39.629Z,100.00
2022-07-26T04:23:12.498Z,100.00
2022-07-26T04:25:43.616Z,100.00
2022-07-26T04:28:15.007Z,100.00
2022-07-26T04:30:45.549Z,100.00
2022-07-26T04:33:15.623Z,100.00
2022-07-26T04:35:45.699Z,100.00
2022-07-26T04:38:18.658Z,100.00
2022-07-26T04:40:48.994Z,100.00
2022-07-26T04:43:19.026Z,100.00
2022-07-26T04:45:50.111Z,100.00
2022-07-26T04:48:21.041Z,100.00
2022-07-26T04:50:51.297Z,100.00
2022-07-26T04:53:23.947Z,100.00
2022-07-26T04:55:53.939Z,100.00
2022-07-26T04:58:23.971Z,100.00
2022-07-26T05:01:09.558Z,100.00
2022-07-26T05:03:40.747Z,100.00
2022-07-26T05:06:11.316Z,100.00
2022-07-26T05:08:45.731Z,100.00
2022-07-26T05:11:15.864Z,100.00
2022-07-26T05:13:45.866Z,100.00
2022-07-26T05:16:15.856Z,100.00
2022-07-26T05:18:49.230Z,100.00
2022-07-26T05:21:21.218Z,99.55
2022-07-26T05:23:54.189Z,91.88
2022-07-26T05:26:24.392Z,90.57
2022-07-26T05:28:54.685Z,88.64
2022-07-26T05:31:24.910Z,83.72
2022-07-26T05:33:55.247Z,81.28
2022-07-26T05:36:25.597Z,76.19
2022-07-26T05:38:58.507Z,71.45
2022-07-26T05:41:28.695Z,70.00
2022-07-26T05:43:59.054Z,77.78
2022-07-26T05:46:29.437Z,79.57
2022-07-26T05:48:59.764Z,81.31
2022-07-26T05:51:30.342Z,80.71
2022-07-26T05:54:03.156Z,76.82
2022-07-26T05:56:33.510Z,71.27
2022-07-26T05:59:03.837Z,69.22
2022-07-26T06:01:35.050Z,70.97
2022-07-26T06:04:07.183Z,73.40
2022-07-26T06:06:37.577Z,82.71
2022-07-26T06:09:10.207Z,80.96
2022-07-26T06:11:40.425Z,78.27
2022-07-26T06:14:10.639Z,80.09
2022-07-26T06:16:40.967Z,84.61
2022-07-26T06:19:11.088Z,82.41
2022-07-26T06:21:42.206Z,78.58
2022-07-26T06:24:15.196Z,75.88
2022-07-26T06:26:46.632Z,73.01
2022-07-26T06:29:16.717Z,71.17
2022-07-26T06:31:46.794Z,72.89
2022-07-26T06:34:16.949Z,77.29
2022-07-26T06:36:47.006Z,79.01
2022-07-26T06:39:19.626Z,81.23
2022-07-26T06:41:49.721Z,75.10
2022-07-26T06:44:25.508Z,69.45
2022-07-26T06:46:55.576Z,72.99
2022-07-26T06:49:25.880Z,71.85
2022-07-26T06:51:57.939Z,70.90
2022-07-26T06:54:30.691Z,72.12
2022-07-26T07:04:12.625Z,65.56
2022-07-26T07:06:42.739Z,58.95
2022-07-26T07:09:15.093Z,58.19
2022-07-26T07:11:51.797Z,58.16
2022-07-26T07:14:26.462Z,56.74
2022-07-26T07:16:56.650Z,55.75
2022-07-26T07:19:27.413Z,57.15
2022-07-26T07:21:57.713Z,56.16
2022-07-26T07:24:27.772Z,55.96
2022-07-26T07:27:01.424Z,54.34
2022-07-26T07:29:31.418Z,53.80
2022-07-26T07:32:03.566Z,53.97
2022-07-26T07:34:33.778Z,53.35
2022-07-26T07:37:04.653Z,52.58
2022-07-26T07:39:38.720Z,52.01
2022-07-26T07:42:11.803Z,50.74
2022-07-26T07:44:41.803Z,48.80
2022-07-26T07:47:12.179Z,48.38
2022-07-26T07:49:42.341Z,48.36
2022-07-26T07:52:12.338Z,48.31
2022-07-26T07:54:42.393Z,48.34
2022-07-26T07:57:15.012Z,47.26
2022-07-26T07:59:45.382Z,47.39
2022-07-26T08:02:15.891Z,45.47
2022-07-26T08:04:46.007Z,44.97
2022-07-26T08:07:16.358Z,47.00
2022-07-26T08:09:46.854Z,47.17
2022-07-26T08:12:19.929Z,45.76
2022-07-26T08:14:50.866Z,45.11
2022-07-26T08:17:20.955Z,43.53
2022-07-26T08:19:55.734Z,41.93
2022-07-26T08:22:29.872Z,42.95
2022-07-26T08:25:00.495Z,42.54
2022-07-26T08:27:40.449Z,40.26
2022-07-26T08:30:13.049Z,40.11
2022-07-26T08:32:43.142Z,39.08
2022-07-26T08:35:18.072Z,39.07
2022-07-26T08:37:50.169Z,38.37
2022-07-26T08:40:20.362Z,38.59
2022-07-26T08:42:56.833Z,37.66
2022-07-26T08:45:30.484Z,37.58
2022-07-26T08:48:18.928Z,37.92
2022-07-26T08:50:50.576Z,36.78
2022-07-26T08:53:20.568Z,36.34
2022-07-26T08:56:06.445Z,37.86
2022-07-26T08:58:40.862Z,38.48
2022-07-26T09:01:15.142Z,38.56
2022-07-26T09:03:47.826Z,38.50
2022-07-26T09:06:20.300Z,37.85
2022-07-26T09:08:55.397Z,36.51
2022-07-26T09:11:35.549Z,36.22
2022-07-26T09:14:09.293Z,36.42
2022-07-26T09:16:40.279Z,37.38
2022-07-26T09:19:22.387Z,39.07
2022-07-26T09:21:55.572Z,38.95
2022-07-26T09:24:37.902Z,39.38
2022-07-26T09:27:11.566Z,39.13
2022-07-26T09:29:57.427Z,40.23
2022-07-26T09:32:29.629Z,39.45
2022-07-26T09:35:45.327Z,38.93
2022-07-26T09:38:03.885Z,38.93
2022-07-26T09:40:37.787Z,37.17
2022-07-26T09:43:10.114Z,38.25
2022-07-26T09:45:48.301Z,38.62
2022-07-26T09:48:52.287Z,35.62
2022-07-26T09:51:39.276Z,31.55
2022-07-26T09:54:10.328Z,29.63
2022-07-26T09:56:50.661Z,29.04
2022-07-26T09:59:23.912Z,30.74
2022-07-26T10:01:58.861Z,31.68
2022-07-26T10:04:30.276Z,33.15
2022-07-26T10:07:02.063Z,34.30
2022-07-26T10:09:41.351Z,33.83
2022-07-26T10:12:16.504Z,35.83
2022-07-26T10:14:51.346Z,32.38
2022-07-26T10:17:51.263Z,29.93
2022-07-26T10:20:50.934Z,32.00
2022-07-26T10:23:44.687Z,30.20
2022-07-26T10:26:46.435Z,29.87
2022-07-26T10:29:30.777Z,31.46
2022-07-26T10:32:20.334Z,35.33
2022-07-26T10:34:53.186Z,34.48
2022-07-26T10:37:30.517Z,33.27
2022-07-26T10:40:25.534Z,35.33
2022-07-26T10:42:55.619Z,34.56
2022-07-26T10:45:27.221Z,34.27
2022-07-26T10:48:18.583Z,34.60
2022-07-26T10:50:55.086Z,34.14
2022-07-26T10:53:28.437Z,33.66
2022-07-26T10:56:01.551Z,32.81
2022-07-26T10:58:44.838Z,30.86
2022-07-26T11:01:15.745Z,33.71
2022-07-26T11:03:46.858Z,34.74
2022-07-26T11:06:23.093Z,33.92
2022-07-26T11:08:53.230Z,34.31
2022-07-26T11:11:32.948Z,37.25
2022-07-26T11:14:12.736Z,35.77
2022-07-26T11:16:45.905Z,32.98
2022-07-26T11:19:18.322Z,34.44
2022-07-26T11:21:58.700Z,33.02
2022-07-26T11:24:29.250Z,31.98
2022-07-26T11:27:05.568Z,33.86
2022-07-26T11:29:40.274Z,35.33
2022-07-26T11:32:21.771Z,34.41
2022-07-26T11:35:01.748Z,33.80
2022-07-26T11:37:34.726Z,33.38
2022-07-26T11:40:04.825Z,32.93
2022-07-26T11:42:34.889Z,33.32
2022-07-26T11:45:04.995Z,33.64
2022-07-26T11:47:35.144Z,33.15
2022-07-26T11:50:22.714Z,33.31
2022-07-26T11:52:56.527Z,32.24
2022-07-26T11:55:31.266Z,32.05
2022-07-26T11:58:08.919Z,33.23
2022-07-26T12:00:39.716Z,33.53
2022-07-26T12:03:09.862Z,32.63
2022-07-26T12:05:41.859Z,31.77
2022-07-26T12:08:15.495Z,32.34
2022-07-26T12:10:45.616Z,33.08
2022-07-26T12:13:19.017Z,33.10
2022-07-26T12:15:51.172Z,31.61
2022-07-26T12:18:34.077Z,32.32
2022-07-26T12:21:09.279Z,31.67
2022-07-26T12:23:53.173Z,31.92
2022-07-26T12:26:25.389Z,31.85
2022-07-26T12:28:57.058Z,31.84
2022-07-26T12:31:29.572Z,33.07
2022-07-26T12:34:00.168Z,32.45
2022-07-26T12:36:30.872Z,31.13
2022-07-26T12:39:04.708Z,29.99
2022-07-26T12:41:37.835Z,30.63
2022-07-26T12:44:12.002Z,29.43
2022-07-26T12:46:45.099Z,29.65
2022-07-26T12:49:15.821Z,31.63
2022-07-26T12:51:45.926Z,32.58
2022-07-26T12:54:18.549Z,30.42
2022-07-26T12:56:48.718Z,29.98
2022-07-26T12:59:18.832Z,29.83
2022-07-26T13:01:49.040Z,31.38
2022-07-26T13:04:19.164Z,33.31
2022-07-26T13:06:49.179Z,33.25
2022-07-26T13:09:21.807Z,32.59
2022-07-26T13:11:51.996Z,32.35
2022-07-26T13:14:22.163Z,30.31
2022-07-26T13:16:52.314Z,29.92
2022-07-26T13:19:22.646Z,30.09
2022-07-26T13:21:53.212Z,30.22
2022-07-26T13:24:26.232Z,30.35
2022-07-26T13:26:57.742Z,29.78
2022-07-26T13:29:30.849Z,28.85
2022-07-26T13:32:01.996Z,31.05
2022-07-26T13:34:35.090Z,32.93
2022-07-26T13:37:08.230Z,31.20
2022-07-26T13:39:41.311Z,28.24
2022-07-26T13:42:11.464Z,27.74
2022-07-26T13:44:41.505Z,28.32
2022-07-26T13:47:11.562Z,28.35
2022-07-26T13:49:41.686Z,27.45
2022-07-26T13:52:15.684Z,26.51
2022-07-26T13:54:49.477Z,27.19
2022-07-26T13:57:19.585Z,27.52
2022-07-26T13:59:49.597Z,30.37
2022-07-26T14:02:19.797Z,31.93
2022-07-26T14:04:50.489Z,31.36
2022-07-26T14:07:20.467Z,31.61
2022-07-26T14:09:53.049Z,30.85
2022-07-26T14:12:23.352Z,29.35
2022-07-26T14:14:53.333Z,26.74
2022-07-26T14:17:23.328Z,27.47
2022-07-26T14:19:53.610Z,27.24
2022-07-26T14:22:23.732Z,27.13
2022-07-26T14:24:56.396Z,26.42
2022-07-26T14:27:26.584Z,25.00
2022-07-26T14:29:56.578Z,24.82
2022-07-26T14:32:26.603Z,23.60
2022-07-26T14:34:56.782Z,22.68
2022-07-26T14:37:41.465Z,23.98
2022-07-26T14:40:20.085Z,24.46
2022-07-26T14:42:50.233Z,22.42
2022-07-26T14:45:20.395Z,23.24
2022-07-26T14:47:50.563Z,24.51
2022-07-26T14:50:22.942Z,26.47
2022-07-26T14:52:53.442Z,26.75
2022-07-26T14:55:26.314Z,27.14
2022-07-26T14:57:56.411Z,27.29
2022-07-26T15:00:26.555Z,26.18
2022-07-26T15:02:56.701Z,24.73
2022-07-26T15:05:27.881Z,25.36
2022-07-26T15:08:02.756Z,24.40
2022-07-26T15:10:38.254Z,23.08
2022-07-26T15:13:10.312Z,22.56
2022-07-26T15:15:40.275Z,20.90
2022-07-26T15:18:10.770Z,22.21
2022-07-26T15:20:42.693Z,23.35
2022-07-26T15:23:14.661Z,24.25
2022-07-26T15:25:48.698Z,26.57
2022-07-26T15:28:19.274Z,25.11
2022-07-26T15:30:49.375Z,27.26
2022-07-26T15:33:20.699Z,27.18
2022-07-26T15:35:53.235Z,25.48
2022-07-26T15:38:23.333Z,23.51
2022-07-26T15:40:56.050Z,25.10
2022-07-26T15:43:43.998Z,25.44
2022-07-26T15:46:19.699Z,27.37
2022-07-26T15:48:51.890Z,28.41
2022-07-26T15:51:24.835Z,29.74
2022-07-26T15:53:55.105Z,27.07
2022-07-26T15:56:27.912Z,25.16
2022-07-26T15:58:57.868Z,26.06
2022-07-26T16:01:28.050Z,27.82
2022-07-26T16:03:58.549Z,27.56
2022-07-26T16:06:28.570Z,27.08
2022-07-26T16:09:15.892Z,25.69
2022-07-26T16:11:49.646Z,25.52
2022-07-26T16:14:20.503Z,28.47
2022-07-26T16:16:51.184Z,30.99
2022-07-26T16:19:21.491Z,31.66
2022-07-26T16:21:51.587Z,29.93
2022-07-26T16:24:21.839Z,25.76
2022-07-26T16:26:54.732Z,25.76
2022-07-26T16:29:25.163Z,28.46
2022-07-26T16:31:56.270Z,31.01
2022-07-26T16:34:27.451Z,28.79
2022-07-26T16:36:57.535Z,26.17
2022-07-26T16:39:27.598Z,26.34
2022-07-26T16:42:04.706Z,26.02
2022-07-26T16:44:37.038Z,25.72
2022-07-26T16:47:07.379Z,24.37
2022-07-26T16:49:37.712Z,27.54
2022-07-26T16:52:09.477Z,30.25
2022-07-26T16:54:39.470Z,32.96
2022-07-26T16:57:12.327Z,34.07
2022-07-26T16:59:42.428Z,34.74
2022-07-26T17:02:12.631Z,35.68
2022-07-26T17:04:42.654Z,34.79
2022-07-26T17:07:25.191Z,30.39
2022-07-26T17:09:56.551Z,30.98
2022-07-26T17:12:29.643Z,33.36
2022-07-26T17:15:01.381Z,34.33
2022-07-26T17:17:31.521Z,35.30
2022-07-26T17:20:01.676Z,35.62
2022-07-26T17:22:31.876Z,36.63
2022-07-26T17:25:01.991Z,34.98
2022-07-26T17:27:35.545Z,30.98
2022-07-26T17:30:07.073Z,27.52
2022-07-26T17:32:38.121Z,25.65
2022-07-26T17:35:10.892Z,26.47
2022-07-26T17:37:40.942Z,27.44
2022-07-26T17:40:13.634Z,25.98
2022-07-26T17:42:48.970Z,26.54
2022-07-26T17:45:19.198Z,28.16
2022-07-26T17:47:49.206Z,28.55
2022-07-26T17:50:35.861Z,28.49
2022-07-26T17:53:07.447Z,29.83
2022-07-26T17:55:37.646Z,30.97
2022-07-26T17:58:10.243Z,30.42
2022-07-26T18:00:40.746Z,30.39
2022-07-26T18:03:11.194Z,28.84
2022-07-26T18:05:41.663Z,29.10
2022-07-26T18:08:11.704Z,30.09
2022-07-26T18:10:43.693Z,30.83
2022-07-26T18:13:19.001Z,31.76
2022-07-26T18:15:49.986Z,31.90
2022-07-26T18:18:20.233Z,32.08
2022-07-26T18:20:50.561Z,31.39
2022-07-26T18:23:20.648Z,31.22
2022-07-26T18:25:50.991Z,31.89
2022-07-26T18:28:23.702Z,34.74
2022-07-26T18:30:54.068Z,35.65
2022-07-26T18:33:24.106Z,37.05
2022-07-26T18:35:57.037Z,38.20
2022-07-26T18:38:27.165Z,39.47
2022-07-26T18:40:57.576Z,40.02
2022-07-26T18:43:30.188Z,39.99
2022-07-26T18:46:05.571Z,40.79
2022-07-26T18:48:36.680Z,41.15
2022-07-26T18:51:11.670Z,41.50
2022-07-26T18:53:41.841Z,41.52
2022-07-26T18:56:11.885Z,41.65
2022-07-26T18:58:44.453Z,42.36
2022-07-26T19:01:14.656Z,42.94
2022-07-26T19:03:45.188Z,43.06
2022-07-26T19:06:15.314Z,43.24
2022-07-26T19:08:45.513Z,43.98
2022-07-26T19:11:15.496Z,43.44
2022-07-26T19:13:48.113Z,43.71
2022-07-26T19:16:18.994Z,44.03
2022-07-26T19:18:52.732Z,43.67
2022-07-26T19:21:25.722Z,44.19
2022-07-26T19:23:55.904Z,43.86
2022-07-26T19:26:27.593Z,44.23
2022-07-26T19:29:00.544Z,44.11
2022-07-26T19:31:30.702Z,44.88
2022-07-26T19:34:00.798Z,45.16
2022-07-26T19:36:30.810Z,44.88
2022-07-26T19:39:01.315Z,45.10
2022-07-26T19:41:31.485Z,45.53
2022-07-26T19:44:04.486Z,46.28
2022-07-26T19:46:35.733Z,46.22
2022-07-26T19:49:06.673Z,46.50
2022-07-26T19:51:36.715Z,46.94
2022-07-26T19:54:07.051Z,47.98
2022-07-26T19:56:41.829Z,47.89
2022-07-26T19:59:19.497Z,48.57
2022-07-26T20:01:56.619Z,48.71
2022-07-26T20:04:28.710Z,48.81
2022-07-26T20:06:58.773Z,50.00
2022-07-26T20:09:29.885Z,50.35
2022-07-26T20:12:01.032Z,50.68
2022-07-26T20:14:33.703Z,51.42
2022-07-26T20:17:03.778Z,52.98
2022-07-26T20:19:43.813Z,53.15
2022-07-26T20:22:14.326Z,54.38
2022-07-26T20:24:44.263Z,55.09
2022-07-26T20:27:14.246Z,55.62
2022-07-26T20:29:46.973Z,56.03
2022-07-26T20:32:17.265Z,56.30
2022-07-26T20:34:47.739Z,56.88
2022-07-26T20:37:17.742Z,57.75
2022-07-26T20:39:47.933Z,58.50
2022-07-26T20:42:21.629Z,60.93
2022-07-26T20:44:55.424Z,61.31
2022-07-26T20:47:25.509Z,60.85
2022-07-26T20:49:59.652Z,61.66
2022-07-26T20:52:32.782Z,62.38
2022-07-26T20:55:03.085Z,62.33
2022-07-26T20:57:33.133Z,63.12
2022-07-26T21:00:09.339Z,63.62
2022-07-26T21:02:39.781Z,63.21
2022-07-26T21:05:13.548Z,63.70
2022-07-26T21:07:59.575Z,64.35
2022-07-26T21:10:30.710Z,64.95
2022-07-26T21:13:01.115Z,66.81
2022-07-26T21:15:34.378Z,67.40
2022-07-26T21:18:04.546Z,68.13
2022-07-26T21:20:35.342Z,69.00
2022-07-26T21:25:30.886Z,70.93
2022-07-26T21:28:01.152Z,71.99
2022-07-26T21:30:33.826Z,71.89
2022-07-26T21:33:03.921Z,73.08
2022-07-26T21:35:35.457Z,73.66
2022-07-26T21:38:05.588Z,72.97
2022-07-26T21:40:35.797Z,76.09
2022-07-26T21:43:05.815Z,77.56
2022-07-26T21:45:38.461Z,75.81
2022-07-26T21:48:09.697Z,75.57
2022-07-26T21:50:39.695Z,77.59
2022-07-26T21:53:09.815Z,78.95
2022-07-26T21:55:39.796Z,78.56
2022-07-26T21:58:10.181Z,79.15
2022-07-26T22:00:43.340Z,79.43
2022-07-26T22:03:13.404Z,81.04
2022-07-26T22:05:45.346Z,81.90
2022-07-26T22:08:18.107Z,82.35
2022-07-26T22:10:48.383Z,85.14
2022-07-26T22:13:19.194Z,84.80
2022-07-26T22:15:52.245Z,84.09
2022-07-26T22:18:22.434Z,84.66
2022-07-26T22:20:52.929Z,85.27
2022-07-26T22:23:30.126Z,86.31
2022-07-26T22:26:01.942Z,85.91
2022-07-26T22:28:32.706Z,85.61
2022-07-26T22:31:05.303Z,86.41
2022-07-26T22:33:35.339Z,87.08
2022-07-26T22:36:05.286Z,88.29
2022-07-26T22:38:35.290Z,86.64
2022-07-26T22:41:05.281Z,87.60
2022-07-26T22:43:35.291Z,87.63
2022-07-26T22:46:07.901Z,89.03
2022-07-26T22:48:38.927Z,89.32
2022-07-26T22:51:09.886Z,91.02
2022-07-26T22:53:39.907Z,91.86
2022-07-26T22:56:09.885Z,92.42
2022-07-26T22:58:41.695Z,91.10
2022-07-26T23:01:16.653Z,90.71
2022-07-26T23:03:49.777Z,90.64
2022-07-26T23:06:31.601Z,91.12
2022-07-26T23:09:02.351Z,91.35
2022-07-26T23:11:32.915Z,92.42
2022-07-26T23:14:03.150Z,93.52
2022-07-26T23:16:35.805Z,93.35
2022-07-26T23:19:06.165Z,94.78
2022-07-26T23:21:36.363Z,96.62
2022-07-26T23:24:06.504Z,97.05
2022-07-26T23:26:36.489Z,96.31
2022-07-26T23:29:08.608Z,98.82
2022-07-26T23:31:42.224Z,99.80
2022-07-26T23:34:12.270Z,100.00
2022-07-26T23:36:42.209Z,100.00
2022-07-26T23:39:12.656Z,100.00
2022-07-26T23:41:43.086Z,100.00
2022-07-26T23:44:13.105Z,100.00
2022-07-26T23:47:03.440Z,100.00
2022-07-26T23:49:33.641Z,100.00
2022-07-26T23:52:03.718Z,100.00
2022-07-26T23:54:33.688Z,100.00
2022-07-26T23:57:18.571Z,100.00
2022-07-26T23:59:48.533Z,100.00
